Flux RSS Matériel et configuration des logiciels

Discussion / Auteur Réponses Vues Dernier message
24 826 12-01-2017 08:07:08 par Usul
14 780 11-01-2017 21:00:57 par ydelta
Cette discussion est fermée
[X-Plane] [FSX] par Le_Castor974
2 145 10-01-2017 16:06:31 par amentiba
54 2110 09-01-2017 13:16:24 par AFR1949
36 1931 06-01-2017 22:10:46 par ydelta
[FSX] Saitek throttle par Dompep
5 395 05-01-2017 08:14:26 par Dompep
19 753 04-01-2017 01:12:45 par amentiba
[FSX] KFC 225 - Bendix/King par Baron 58 Real World
0 113 03-01-2017 10:07:47 par Baron 58 Real World
[Réel] Choix écran.. par BastanC6
7 567 02-01-2017 01:03:17 par BastanC6
[FSX] Geforce Experience par BREGUET 36
17 560 01-01-2017 17:43:37 par Zangdaarr
1 399 30-12-2016 22:08:31 par NEPTUNE6P2V7
11 309 30-12-2016 18:47:34 par tojdank
[Réel] "Windows 10 anniversary" par Magnum346  [ 1 2 3 … 5 ]
103 4702 30-12-2016 12:43:18 par AFR1949
5 287 29-12-2016 07:34:35 par deletrider
19 4688 28-12-2016 09:38:47 par alouette2
1 140 27-12-2016 12:12:25 par Lagaffe
33 1088 27-12-2016 10:24:51 par padu76
2 234 26-12-2016 22:42:10 par Avroliner
3 172 25-12-2016 19:43:27 par rache
9 1069 25-12-2016 10:32:39 par jet007
7 228 23-12-2016 08:59:04 par Pierrick
11 373 22-12-2016 22:30:31 par Bobonhom
17 516 22-12-2016 14:59:02 par Handie
Débutant installation par jip  [ 1 2 ]
28 1337 21-12-2016 12:05:49 par jip
Upgrade en deux temps par jef1sb4
4 229 20-12-2016 08:32:28 par gabuzo13
59 2709 18-12-2016 17:59:50 par Zangdaarr
Cette discussion est fermée
1 123 18-12-2016 17:30:54 par Ptipilot
11 372 18-12-2016 16:55:35 par gigi31
0 129 17-12-2016 11:29:30 par richarba11
Cette discussion est fermée
[fsx] par richarba11
1 103 17-12-2016 11:24:59 par Lonevolf

Pied de page des forums

Propulsé par FluxBB 1.2.23
Traduction par punbb.fr

Maintenance informatique Lausanne